Thunder radar more information blitzortung!


Radar de pluja more information rain snow radar


Visita la nostra xarxa de llocs de meteo:

Template documentation
and downloads

And another site



No particular awareness of the weather is required.    There are no Weather-warnings

Pagina Historial Weather Underground text

Diari Resum January 2, 2016 Unitats:  Mètric    Imperial   Tant
« Previous Dia
SegĂźent Dia »
Diari Setmana Mensual Anual Personalitzada
  Maxima: Minima: Media:
Temperatura: -17.8 °C -13.6 °C -11.2 °C
Punt de rosada: -17.8 °C -18.6 °C -16.2 °C
Humitat: Humidity % 48 % 54 %
Wind Speed: 0 km/h 0 km/h 11.6 km/h
RĂ fegues de vent: 0 km/h - -
Vent:- - WSW
Pression baro: 0 hPa 34395 hPa -
Precipitacions: 0 mm    
Historical Graphs
 
 
Dades de taula per January 2, 2016
Temps Temperatura Punt de rosada Pression baro Vent Wind Speed RĂ fegues de vent Humitat Rainfall Rate (Hourly)
-17.8 °C -17.8 °C 0 hPa Calm     Humidity % 0 mm
10:58 -11 °C -13.7 °C 34496.6 hPa WSW 9.8 km/h 9.8 km/h 72 % 0 mm
10:59 -10.9 °C -13.7 °C 34496.6 hPa WSW 14 km/h 14 km/h 72 % 0 mm
11:04 -10.9 °C -13.6 °C 34496.6 hPa SW 9 km/h 9 km/h 72 % 0 mm
11:09 -10.9 °C -13.9 °C 34496.6 hPa West 20.9 km/h 20.9 km/h 70 % 0 mm
11:14 -11 °C -13.9 °C 34496.6 hPa WSW 11.9 km/h 11.9 km/h 70 % 0 mm
11:19 -11.1 °C -14.2 °C 34496.6 hPa WSW 17.9 km/h 17.9 km/h 69 % 0 mm
11:24 -11.2 °C -14.4 °C 34496.6 hPa WNW 15.6 km/h 15.6 km/h 68 % 0 mm
11:29 -11.3 °C -14.6 °C 34462.7 hPa WNW 15 km/h 15 km/h 67 % 0 mm
11:34 -11.3 °C -14.4 °C 34462.7 hPa WNW 23.8 km/h 23.8 km/h 68 % 0 mm
11:39 -11.3 °C -14.5 °C 34462.7 hPa NW 16.1 km/h 16.1 km/h 68 % 0 mm
11:44 -11.4 °C -14.6 °C 34496.6 hPa West 22.5 km/h 22.5 km/h 68 % 0 mm
11:49 -11.4 °C -14.6 °C 34496.6 hPa West 17.9 km/h 17.9 km/h 68 % 0 mm
11:54 -11.4 °C -14.6 °C 34496.6 hPa SW 11.9 km/h 11.9 km/h 68 % 0 mm
11:59 -11.4 °C -14.5 °C 34462.7 hPa West 15 km/h 15 km/h 69 % 0 mm
12:04 -11.4 °C -14.5 °C 34462.7 hPa WSW 15 km/h 15 km/h 69 % 0 mm
12:09 -11.4 °C -14.4 °C 34462.7 hPa WSW 12.7 km/h 12.7 km/h 69 % 0 mm
12:14 -11.4 °C -14.4 °C 34496.6 hPa WSW 9 km/h 9 km/h 69 % 0 mm
12:19 -11.4 °C -14.4 °C 34496.6 hPa WSW 9.8 km/h 9.8 km/h 69 % 0 mm
12:24 -11.3 °C -14.4 °C 34496.6 hPa SW 9 km/h 9 km/h 69 % 0 mm
12:29 -11.3 °C -14.3 °C 34462.7 hPa WSW 11.9 km/h 11.9 km/h 70 % 0 mm
12:34 -11.3 °C -14.3 °C 34462.7 hPa WSW 11.9 km/h 11.9 km/h 69 % 0 mm
12:39 -11.2 °C -14.4 °C 34462.7 hPa SW 6.8 km/h 6.8 km/h 68 % 0 mm
12:44 -11.1 °C -14.3 °C 34462.7 hPa WSW 11.9 km/h 11.9 km/h 68 % 0 mm
12:49 -11.1 °C -14.5 °C 34462.7 hPa WNW 15.3 km/h 15.3 km/h 66 % 0 mm
12:54 -11.1 °C -14.6 °C 34462.7 hPa SW 27.2 km/h 27.2 km/h 65 % 0 mm
12:59 -11 °C -14.7 °C 34462.7 hPa NNW 10.3 km/h 10.3 km/h 64 % 0 mm
13:04 -11 °C -14.7 °C 34462.7 hPa NNE 15 km/h 15 km/h 64 % 0 mm
13:09 -10.9 °C -14.8 °C 34462.7 hPa SSW 17.9 km/h 17.9 km/h 63 % 0 mm
13:14 -10.8 °C -14.6 °C 34462.7 hPa NW 19.2 km/h 19.2 km/h 63 % 0 mm
13:19 -10.8 °C -14.7 °C 34462.7 hPa SW 11.9 km/h 11.9 km/h 62 % 0 mm
13:24 -10.7 °C -14.6 °C 34462.7 hPa SW 17.9 km/h 17.9 km/h 62 % 0 mm
13:29 -10.7 °C -14.8 °C 34428.8 hPa South 26.9 km/h 26.9 km/h 61 % 0 mm
13:34 -10.6 °C -14.8 °C 34428.8 hPa NNW 15 km/h 15.3 km/h 60 % 0 mm
13:39 -10.4 °C -14.7 °C 34428.8 hPa WSW 3.1 km/h 4.2 km/h 60 % 0 mm
13:44 -10.3 °C -14.6 °C 34395 hPa WNW 15 km/h 15 km/h 60 % 0 mm
13:49 -10.3 °C -14.8 °C 34395 hPa NNW 11.9 km/h 11.9 km/h 58 % 0 mm
13:54 -10.2 °C -14.6 °C 34395 hPa West 11.9 km/h 11.9 km/h 59 % 0 mm
13:55 -10.2 °C -14.7 °C 34395 hPa West 11.9 km/h 11.9 km/h 58 % 0 mm
14:00 -10.3 °C -14.9 °C 34462.7 hPa SW 11.9 km/h 11.9 km/h 57 % 0 mm
14:05 -10.2 °C -14.8 °C 34462.7 hPa SW 15 km/h 15 km/h 57 % 0 mm
14:10 -10.1 °C -14.7 °C 34462.7 hPa NW 11.9 km/h 11.9 km/h 57 % 0 mm
14:15 -10.1 °C -14.7 °C 34462.7 hPa SW 3.1 km/h 6.3 km/h 57 % 0 mm
14:20 -10 °C -14.7 °C 34462.7 hPa WNW 3.7 km/h 6.8 km/h 57 % 0 mm
14:25 -9.9 °C -14.6 °C 34462.7 hPa SW 15 km/h 15 km/h 57 % 0 mm
14:30 -9.9 °C -14.7 °C 34462.7 hPa SW 17.9 km/h 17.9 km/h 56 % 0 mm
14:35 -9.8 °C -14.8 °C 34462.7 hPa WNW 15 km/h 15 km/h 55 % 0 mm
14:40 -9.8 °C -14.9 °C 34462.7 hPa West 15 km/h 15 km/h 54 % 0 mm
14:45 -9.7 °C -15 °C 34462.7 hPa ENE 35.7 km/h 35.7 km/h 53 % 0 mm
14:50 -9.7 °C -15.1 °C 34462.7 hPa WSW 15 km/h 15 km/h 52 % 0 mm
14:55 -9.4 °C -14.7 °C 34462.7 hPa WSW 6 km/h 6 km/h 53 % 0 mm
15:00 -9.4 °C -14.8 °C 34462.7 hPa WSW 17.9 km/h 17.9 km/h 52 % 0 mm
15:05 -9.3 °C -14.8 °C 34462.7 hPa NW 20.9 km/h 20.9 km/h 52 % 0 mm
15:10 -9.3 °C -14.7 °C 34462.7 hPa WSW 15 km/h 15 km/h 52 % 0 mm
15:15 -9.3 °C -14.9 °C 34462.7 hPa South 23.8 km/h 23.8 km/h 51 % 0 mm
15:20 -9.3 °C -14.9 °C 34462.7 hPa WSW 15 km/h 15 km/h 51 % 0 mm
15:25 -9.4 °C -14.9 °C 34462.7 hPa SW 23.8 km/h 23.8 km/h 51 % 0 mm
15:30 -9.4 °C -15.1 °C 34462.7 hPa WSW 17.9 km/h 17.9 km/h 51 % 0 mm
15:35 -9.4 °C -15.1 °C 34462.7 hPa SW 20.9 km/h 20.9 km/h 51 % 0 mm
15:40 -9.4 °C -14.9 °C 34462.7 hPa West 15.3 km/h 15.3 km/h 51 % 0 mm
15:45 -9.4 °C -14.9 °C 34462.7 hPa West 23.8 km/h 23.8 km/h 51 % 0 mm
15:50 -9.4 °C -14.9 °C 34462.7 hPa SW 11.9 km/h 11.9 km/h 51 % 0 mm
15:55 -9.3 °C -14.9 °C 34462.7 hPa WNW 17.9 km/h 17.9 km/h 51 % 0 mm
16:00 -9.4 °C -15.2 °C 34462.7 hPa West 20.9 km/h 20.9 km/h 50 % 0 mm
16:05 -9.4 °C -15.2 °C 34462.7 hPa SSE 26.9 km/h 26.9 km/h 50 % 0 mm
16:10 -9.4 °C -15.2 °C 34462.7 hPa SW 11.9 km/h 11.9 km/h 50 % 0 mm
16:15 -9.4 °C -15.2 °C 34428.8 hPa WSW 17.9 km/h 17.9 km/h 50 % 0 mm
16:20 -9.4 °C -15.2 °C 34428.8 hPa WSW 11.9 km/h 11.9 km/h 50 % 0 mm
16:25 -9.4 °C -15.2 °C 34428.8 hPa WSW 32.8 km/h 32.8 km/h 50 % 0 mm
16:30 -9.6 °C -15.5 °C 34462.7 hPa West 15 km/h 15 km/h 49 % 0 mm
16:35 -9.7 °C -15.4 °C 34462.7 hPa SW 9 km/h 9 km/h 50 % 0 mm
16:40 -9.7 °C -15.4 °C 34462.7 hPa West 20.9 km/h 20.9 km/h 50 % 0 mm
16:45 -9.8 °C -15.5 °C 34496.6 hPa SW 9 km/h 10.3 km/h 50 % 0 mm
16:50 -9.8 °C -15.5 °C 34496.6 hPa WNW 9 km/h 9 km/h 50 % 0 mm
16:55 -9.8 °C -15.6 °C 34496.6 hPa WSW 11.9 km/h 11.9 km/h 50 % 0 mm
17:00 -9.9 °C -15.6 °C 34496.6 hPa SSW 11.9 km/h 11.9 km/h 50 % 0 mm
17:05 -10 °C -15.7 °C 34496.6 hPa SSW 11.9 km/h 12.7 km/h 50 % 0 mm
17:10 -10.1 °C -15.8 °C 34496.6 hPa SSW 11.9 km/h 12.7 km/h 50 % 0 mm
17:15 -10.1 °C -15.8 °C 34496.6 hPa SSW 11.9 km/h 12.7 km/h 50 % 0 mm
17:20 -10.3 °C -15.9 °C 34496.6 hPa WSW 16.1 km/h 16.1 km/h 50 % 0 mm
17:25 -10.4 °C -16.1 °C 34496.6 hPa WSW 16.1 km/h 16.1 km/h 50 % 0 mm
17:30 -10.5 °C -16.2 °C 34496.6 hPa WSW 16.1 km/h 16.1 km/h 50 % 0 mm
17:35 -10.6 °C -16.2 °C 34496.6 hPa WSW 16.1 km/h 16.1 km/h 50 % 0 mm
17:40 -10.6 °C -16.1 °C 34496.6 hPa WSW 16.1 km/h 16.1 km/h 51 % 0 mm
17:45 -10.7 °C -16.2 °C 34462.7 hPa WSW 16.1 km/h 16.1 km/h 51 % 0 mm
17:50 -10.7 °C -16.2 °C 34462.7 hPa WSW 16.1 km/h 16.1 km/h 51 % 0 mm
17:55 -10.8 °C -16.3 °C 34462.7 hPa WSW 16.1 km/h 16.1 km/h 51 % 0 mm
18:00 -10.9 °C -16.3 °C 34496.6 hPa WNW 6 km/h 6 km/h 51 % 0 mm
18:05 -10.9 °C -16.3 °C 34496.6 hPa SW 9 km/h 9 km/h 51 % 0 mm
18:10 -10.8 °C -16.3 °C 34496.6 hPa WNW 15 km/h 15 km/h 51 % 0 mm
18:15 -10.9 °C -16.4 °C 34533.8 hPa WSW 9.3 km/h 9.3 km/h 51 % 0 mm
18:20 -10.9 °C -16.4 °C 34533.8 hPa South 6.3 km/h 6.3 km/h 51 % 0 mm
18:25 -11 °C -16.6 °C 34533.8 hPa WNW 15 km/h 15 km/h 50 % 0 mm
18:30 -11 °C -16.8 °C 34533.8 hPa West 11.9 km/h 12.2 km/h 49 % 0 mm
18:35 -11.1 °C -17 °C 34533.8 hPa West 32.8 km/h 32.8 km/h 48 % 0 mm
18:40 -11.1 °C -17.1 °C 34533.8 hPa WSW 15 km/h 15 km/h 48 % 0 mm
18:45 -11.2 °C -16.9 °C 34533.8 hPa SW 11.9 km/h 11.9 km/h 49 % 0 mm
18:50 -11.2 °C -17 °C 34533.8 hPa NW 7.6 km/h 7.6 km/h 49 % 0 mm
18:55 -11.3 °C -17.1 °C 34533.8 hPa WSW 11.9 km/h 11.9 km/h 49 % 0 mm
19:00 -11.3 °C -17.1 °C 34533.8 hPa ESE 9 km/h 9 km/h 49 % 0 mm
19:05 -11.4 °C -17.1 °C 34533.8 hPa WSW 9 km/h 9 km/h 49 % 0 mm
19:10 -11.4 °C -17.1 °C 34533.8 hPa SW 9.8 km/h 9.8 km/h 49 % 0 mm
19:15 -11.4 °C -17.3 °C 34533.8 hPa West 11.9 km/h 11.9 km/h 48 % 0 mm
19:20 -11.5 °C -17.3 °C 34533.8 hPa SW 15.3 km/h 15.3 km/h 49 % 0 mm
19:25 -11.6 °C -17.4 °C 34533.8 hPa WNW 6 km/h 6 km/h 48 % 0 mm
19:30 -11.6 °C -17.4 °C 34533.8 hPa West 9 km/h 9 km/h 48 % 0 mm
19:35 -11.7 °C -17.6 °C 34533.8 hPa SSE 9 km/h 9 km/h 48 % 0 mm
19:40 -11.7 °C -17.6 °C 34533.8 hPa NE 9 km/h 9 km/h 48 % 0 mm
19:45 -11.7 °C -17.6 °C 34533.8 hPa NW 9 km/h 9 km/h 48 % 0 mm
19:50 -11.7 °C -17.4 °C 34533.8 hPa West 6.8 km/h 6.8 km/h 49 % 0 mm
19:55 -11.8 °C -17.5 °C 34533.8 hPa ENE 6 km/h 6 km/h 49 % 0 mm
20:00 -11.8 °C -17.6 °C 34533.8 hPa WSW 11.1 km/h 11.1 km/h 49 % 0 mm
20:05 -11.8 °C -17.6 °C 34533.8 hPa SW 6.3 km/h 8 km/h 49 % 0 mm
20:10 -11.9 °C -17.6 °C 34533.8 hPa SW 3.1 km/h 3.7 km/h 49 % 0 mm
20:15 -11.9 °C -17.7 °C 34533.8 hPa West 6 km/h 6 km/h 49 % 0 mm
20:20 -11.9 °C -17.7 °C 34533.8 hPa South 11.9 km/h 11.9 km/h 49 % 0 mm
20:25 -11.9 °C -17.7 °C 34533.8 hPa WSW 15 km/h 15 km/h 48 % 0 mm
20:30 -11.9 °C -17.6 °C 34533.8 hPa SW 9 km/h 9 km/h 49 % 0 mm
20:35 -12 °C -17.7 °C 34533.8 hPa WNW 9.3 km/h 9.3 km/h 49 % 0 mm
20:40 -12 °C -17.7 °C 34533.8 hPa WSW 6.8 km/h 6.8 km/h 49 % 0 mm
20:45 -12.1 °C -17.7 °C 34496.6 hPa WSW 6 km/h 6 km/h 49 % 0 mm
20:50 -12.1 °C -17.8 °C 34496.6 hPa WNW 7.6 km/h 7.6 km/h 49 % 0 mm
20:55 -12.1 °C -17.8 °C 34496.6 hPa SW 6 km/h 6 km/h 49 % 0 mm
21:00 -12.1 °C -17.7 °C 34533.8 hPa SW 6 km/h 6 km/h 50 % 0 mm
21:05 -12.2 °C -17.7 °C 34533.8 hPa SW 6 km/h 6 km/h 50 % 0 mm
21:10 -12.2 °C -17.7 °C 34533.8 hPa SW 6 km/h 6 km/h 50 % 0 mm
21:15 -12.2 °C -17.7 °C 34533.8 hPa SW 6 km/h 6 km/h 50 % 0 mm
21:20 -12.3 °C -17.8 °C 34533.8 hPa SW 6 km/h 6 km/h 50 % 0 mm
21:25 -12.3 °C -17.9 °C 34533.8 hPa SW 6 km/h 6 km/h 50 % 0 mm
21:30 -12.4 °C -17.9 °C 34533.8 hPa WSW 6 km/h   50 % 0 mm
21:35 -12.5 °C -18 °C 34533.8 hPa SSE 6.3 km/h   50 % 0 mm
21:40 -12.6 °C -18.1 °C 34533.8 hPa WSW 11.9 km/h   50 % 0 mm
21:45 -12.5 °C -17.9 °C 34533.8 hPa SW 7.6 km/h 7.6 km/h 51 % 0 mm
21:50 -12.5 °C -17.9 °C 34533.8 hPa SW 7.6 km/h 7.6 km/h 51 % 0 mm
21:55 -12.5 °C -17.9 °C 34533.8 hPa WSW 6 km/h 6 km/h 51 % 0 mm
22:00 -12.6 °C -17.9 °C 34533.8 hPa WSW 4.2 km/h 4.2 km/h 51 % 0 mm
22:05 -12.6 °C -17.9 °C 34533.8 hPa WSW 4.2 km/h 4.2 km/h 51 % 0 mm
22:10 -12.6 °C -17.9 °C 34533.8 hPa WSW 4.2 km/h 4.2 km/h 51 % 0 mm
22:15 -12.7 °C -18 °C 34533.8 hPa WSW 4.2 km/h 4.2 km/h 51 % 0 mm
22:20 -12.7 °C -18.1 °C 34533.8 hPa SSE 3.7 km/h   51 % 0 mm
22:25 -12.7 °C -18.1 °C 34533.8 hPa SSE 3.7 km/h   51 % 0 mm
22:30 -12.8 °C -18.1 °C 34496.6 hPa SSE 3.7 km/h   51 % 0 mm
22:35 -12.8 °C -18.2 °C 34496.6 hPa SSE 3.7 km/h   51 % 0 mm
22:40 -12.9 °C -18.1 °C 34496.6 hPa SSE 3.7 km/h   52 % 0 mm
22:45 -12.8 °C -18 °C 34533.8 hPa SSE 3.7 km/h   52 % 0 mm
22:50 -12.9 °C -18.1 °C 34533.8 hPa SSE 3.7 km/h   52 % 0 mm
22:55 -12.9 °C -18.1 °C 34533.8 hPa SSE 3.7 km/h   52 % 0 mm
23:00 -12.9 °C -18.1 °C 34533.8 hPa SSE 3.7 km/h   52 % 0 mm
23:05 -13.2 °C -18.3 °C 34533.8 hPa SSE 3.7 km/h   52 % 0 mm
23:10 -13.2 °C -18.3 °C 34533.8 hPa SSE 3.7 km/h   52 % 0 mm
23:15 -13.2 °C -18.4 °C 34533.8 hPa SSE 3.7 km/h   52 % 0 mm
23:20 -13.2 °C -18.2 °C 34533.8 hPa SSE 3.7 km/h   53 % 0 mm
23:25 -13.2 °C -18.2 °C 34533.8 hPa WNW 3.1 km/h   53 % 0 mm
23:30 -13.3 °C -18.3 °C 34533.8 hPa Calm     53 % 0 mm
23:35 -13.3 °C -18.3 °C 34533.8 hPa Calm     53 % 0 mm
23:40 -13.6 °C -18.6 °C 34533.8 hPa Calm     53 % 0 mm
23:45 -13.6 °C -18.6 °C 34533.8 hPa Calm     53 % 0 mm
23:50 -13.5 °C -18.5 °C 34533.8 hPa Calm     53 % 0 mm
Meteo Sesrovires
Elogis d' Weather Underground - 3.5 mb

Guio original per  Jim McMurry - jmcmurry@mwt.net Adaptat per a la plantilla per  Wim van der Kuil - Leuven-Template.eu

Trobareu la nostra informacio del temps tambe a:

Weather Underground

AWEKAS